createdAt,value
2023-03-01T00:01:19.304Z,22.07
2023-03-01T00:03:46.277Z,19.73
2023-03-01T00:08:46.636Z,21.00
2023-03-01T00:11:33.342Z,23.33
2023-03-01T00:14:02.057Z,21.57
2023-03-01T00:16:32.016Z,20.73
2023-03-01T00:18:59.604Z,21.87
2023-03-01T00:21:29.528Z,20.60
2023-03-01T00:23:57.089Z,22.40
2023-03-01T00:26:24.794Z,23.30
2023-03-01T00:28:51.604Z,21.67
2023-03-01T00:31:23.887Z,21.83
2023-03-01T00:33:54.604Z,23.30
2023-03-01T00:36:21.135Z,22.10
2023-03-01T00:38:47.579Z,23.35
2023-03-01T00:41:16.184Z,24.60
2023-03-01T00:43:44.966Z,24.00
2023-03-01T00:46:14.786Z,25.70
2023-03-01T00:48:41.590Z,23.80
2023-03-01T00:51:21.076Z,23.55
2023-03-01T00:53:48.155Z,25.67
2023-03-01T00:56:15.649Z,25.53
2023-03-01T00:58:42.791Z,25.63
2023-03-01T01:01:20.731Z,24.40
2023-03-01T01:03:48.399Z,23.10
2023-03-01T01:06:20.335Z,23.07
2023-03-01T01:08:47.139Z,24.60
2023-03-01T01:11:14.099Z,24.55
2023-03-01T01:16:07.443Z,23.25
2023-03-01T01:21:09.430Z,23.17
2023-03-01T01:23:35.921Z,24.20
2023-03-01T01:26:14.871Z,23.42
2023-03-01T01:28:41.348Z,22.57
2023-03-01T01:31:08.582Z,24.25
2023-03-01T01:33:35.596Z,23.47
2023-03-01T01:36:02.188Z,22.97
2023-03-01T01:38:28.794Z,22.20
2023-03-01T01:40:55.223Z,21.02
2023-03-01T01:43:37.998Z,20.98
2023-03-01T01:46:46.609Z,20.67
2023-03-01T01:49:52.051Z,19.63
2023-03-01T01:52:28.316Z,19.75
2023-03-01T01:55:06.926Z,20.50
2023-03-01T01:57:38.469Z,20.17
2023-03-01T02:00:22.417Z,19.97
2023-03-01T02:02:53.005Z,19.50
2023-03-01T02:05:34.862Z,19.50
2023-03-01T02:08:01.959Z,19.43
2023-03-01T02:10:34.816Z,20.17
2023-03-01T02:13:02.637Z,19.43
2023-03-01T02:15:33.889Z,19.53
2023-03-01T02:18:00.598Z,17.73
2023-03-01T02:20:51.947Z,19.58
2023-03-01T02:23:18.824Z,18.93
2023-03-01T02:28:14.264Z,17.52
2023-03-01T02:31:01.879Z,17.63
2023-03-01T02:33:30.780Z,17.37
2023-03-01T02:35:57.784Z,18.33
2023-03-01T02:38:25.194Z,15.43
2023-03-01T02:40:52.917Z,15.87
2023-03-01T02:43:24.194Z,15.87
2023-03-01T02:45:54.036Z,15.43
2023-03-01T02:48:21.140Z,15.60
2023-03-01T02:51:15.937Z,16.33
2023-03-01T02:54:03.489Z,15.53
2023-03-01T02:56:31.037Z,16.73
2023-03-01T02:59:01.686Z,16.80
2023-03-01T03:01:39.803Z,16.23
2023-03-01T03:04:08.452Z,15.60
2023-03-01T03:06:35.012Z,16.90
2023-03-01T03:09:01.528Z,16.77
2023-03-01T03:11:27.997Z,17.23
2023-03-01T03:13:54.633Z,15.82
2023-03-01T03:16:21.650Z,15.88
2023-03-01T03:18:48.720Z,15.57
2023-03-01T03:21:15.716Z,16.00
2023-03-01T03:23:42.284Z,16.30
2023-03-01T03:26:08.771Z,15.60
2023-03-01T03:28:36.200Z,15.38
2023-03-01T03:31:05.507Z,15.90
2023-03-01T03:33:32.290Z,15.70
2023-03-01T03:35:58.870Z,16.23
2023-03-01T03:38:25.840Z,16.35
2023-03-01T03:43:22.990Z,15.40
2023-03-01T03:45:58.188Z,15.27
2023-03-01T03:48:25.557Z,16.03
2023-03-01T03:50:57.017Z,15.30
2023-03-01T03:53:25.933Z,16.33
2023-03-01T03:55:53.020Z,17.60
2023-03-01T03:58:21.110Z,16.53
2023-03-01T04:00:49.404Z,16.77
2023-03-01T04:03:17.671Z,17.47
2023-03-01T04:05:44.464Z,15.03
2023-03-01T04:08:11.498Z,15.65
2023-03-01T04:10:45.882Z,15.17
2023-03-01T04:13:15.330Z,15.20
2023-03-01T04:15:44.278Z,14.73
2023-03-01T04:18:14.937Z,15.63
2023-03-01T04:20:41.662Z,15.97
2023-03-01T04:23:14.408Z,15.88
2023-03-01T04:25:42.947Z,16.27
2023-03-01T04:28:10.194Z,15.47
2023-03-01T04:30:37.722Z,16.27
2023-03-01T04:33:09.214Z,15.30
2023-03-01T04:35:37.673Z,16.57
2023-03-01T04:38:05.117Z,16.27
2023-03-01T04:40:31.701Z,15.70
2023-03-01T04:42:58.228Z,16.67
2023-03-01T04:45:24.754Z,16.75
2023-03-01T04:47:53.105Z,17.30
2023-03-01T04:50:24.662Z,18.03
2023-03-01T04:52:51.447Z,17.83
2023-03-01T04:55:18.086Z,17.30
2023-03-01T04:57:44.655Z,16.02
2023-03-01T05:00:20.999Z,15.75
2023-03-01T05:02:56.202Z,15.20
2023-03-01T05:05:26.644Z,14.97
2023-03-01T05:07:58.961Z,17.03
2023-03-01T05:10:31.237Z,15.97
2023-03-01T05:12:58.837Z,16.87
2023-03-01T05:15:27.677Z,17.10
2023-03-01T05:17:55.445Z,17.10
2023-03-01T05:20:25.262Z,16.47
2023-03-01T05:22:55.478Z,17.00
2023-03-01T05:25:22.459Z,15.90
2023-03-01T05:27:49.342Z,16.97
2023-03-01T05:32:44.933Z,16.33
2023-03-01T05:35:14.222Z,15.83
2023-03-01T05:37:42.740Z,16.53
2023-03-01T05:40:16.538Z,15.73
2023-03-01T05:42:44.882Z,16.87
2023-03-01T05:45:13.325Z,15.90
2023-03-01T05:47:44.624Z,16.83
2023-03-01T05:50:24.079Z,16.70
2023-03-01T05:52:59.243Z,16.97
2023-03-01T05:55:26.668Z,16.77
2023-03-01T05:57:54.511Z,16.17
2023-03-01T06:00:47.793Z,16.30
2023-03-01T06:03:15.847Z,16.73
2023-03-01T06:05:43.426Z,16.43
2023-03-01T06:08:12.108Z,16.17
2023-03-01T06:10:40.257Z,17.10
2023-03-01T06:13:06.762Z,17.90
2023-03-01T06:15:33.608Z,16.23
2023-03-01T06:20:29.372Z,17.07
2023-03-01T06:22:55.880Z,17.83
2023-03-01T06:25:27.330Z,17.67
2023-03-01T06:27:54.106Z,18.00
2023-03-01T06:30:23.063Z,18.10
2023-03-01T06:32:50.387Z,20.27
2023-03-01T06:35:18.979Z,20.67
2023-03-01T06:37:47.494Z,20.43
2023-03-01T06:40:15.111Z,22.13
2023-03-01T06:42:44.906Z,21.90
2023-03-01T06:45:12.377Z,20.93
2023-03-01T06:47:39.036Z,21.87
2023-03-01T06:50:05.896Z,22.42
2023-03-01T06:52:33.492Z,21.57
2023-03-01T06:55:00.692Z,20.42
2023-03-01T06:57:27.523Z,23.53
2023-03-01T07:02:20.354Z,20.58
2023-03-01T07:04:46.828Z,17.33
2023-03-01T07:07:13.363Z,23.65
2023-03-01T07:09:39.791Z,20.55
2023-03-01T07:12:06.815Z,21.65
2023-03-01T07:14:33.426Z,22.03
2023-03-01T07:16:59.917Z,24.27
2023-03-01T07:19:26.449Z,26.42
2023-03-01T07:21:52.954Z,25.15
2023-03-01T07:24:19.598Z,23.70
2023-03-01T07:26:49.766Z,25.63
2023-03-01T07:29:16.172Z,25.00
2023-03-01T07:31:42.620Z,24.08
2023-03-01T07:34:09.144Z,24.33
2023-03-01T07:36:35.721Z,25.00
2023-03-01T07:39:04.084Z,24.40
2023-03-01T07:41:30.999Z,24.67
2023-03-01T07:46:23.826Z,25.15
2023-03-01T07:48:50.226Z,25.58
2023-03-01T07:51:16.933Z,25.08
2023-03-01T07:53:43.369Z,26.70
2023-03-01T07:56:20.400Z,25.80
2023-03-01T07:58:47.381Z,27.07
2023-03-01T08:01:20.430Z,26.03
2023-03-01T08:03:47.366Z,27.10
2023-03-01T08:08:42.040Z,24.90
2023-03-01T08:11:11.887Z,24.48
2023-03-01T08:13:38.523Z,26.47
2023-03-01T08:16:16.420Z,25.97
2023-03-01T08:18:43.885Z,25.57
2023-03-01T08:21:12.952Z,25.60
2023-03-01T08:23:39.798Z,27.10
2023-03-01T08:26:10.269Z,27.57
2023-03-01T08:28:37.282Z,27.67
2023-03-01T08:31:06.560Z,28.93
2023-03-01T08:33:32.997Z,31.10
2023-03-01T08:36:10.421Z,27.83
2023-03-01T08:38:37.238Z,28.37
2023-03-01T08:41:04.373Z,30.50
2023-03-01T08:43:30.950Z,32.97
2023-03-01T08:45:57.454Z,31.88
2023-03-01T08:48:24.267Z,31.25
2023-03-01T08:50:51.795Z,32.92
2023-03-01T08:53:18.336Z,33.17
2023-03-01T08:55:44.858Z,33.67
2023-03-01T08:58:11.288Z,31.75
2023-03-01T09:00:37.822Z,34.05
2023-03-01T09:03:04.304Z,31.45
2023-03-01T09:05:33.758Z,31.15
2023-03-01T09:08:00.364Z,32.23
2023-03-01T09:10:27.011Z,30.33
2023-03-01T09:12:53.734Z,30.13
2023-03-01T09:15:20.319Z,31.23
2023-03-01T09:17:46.733Z,32.15
2023-03-01T09:20:13.152Z,33.70
2023-03-01T09:22:39.585Z,31.60
2023-03-01T09:25:06.651Z,29.77
2023-03-01T09:29:59.435Z,28.67
2023-03-01T09:32:26.038Z,27.77
2023-03-01T09:35:21.815Z,28.05
2023-03-01T09:37:48.302Z,25.92
2023-03-01T09:40:21.020Z,25.40
2023-03-01T09:43:07.076Z,22.17
2023-03-01T09:45:41.882Z,24.55
2023-03-01T09:48:16.744Z,20.10
2023-03-01T09:50:47.620Z,22.00
2023-03-01T09:53:20.833Z,23.00
2023-03-01T09:55:55.715Z,23.10
2023-03-01T09:58:41.064Z,22.38
2023-03-01T10:01:26.983Z,22.27
2023-03-01T10:04:05.693Z,28.05
2023-03-01T10:06:35.326Z,24.15
2023-03-01T10:09:10.626Z,23.15
2023-03-01T10:11:42.869Z,24.90
2023-03-01T10:14:38.110Z,24.33
2023-03-01T10:17:13.473Z,25.00
2023-03-01T10:19:42.846Z,22.73
2023-03-01T10:22:17.228Z,22.30
2023-03-01T10:24:44.306Z,22.92
2023-03-01T10:29:53.668Z,22.70
2023-03-01T10:32:20.714Z,24.58
2023-03-01T10:34:48.348Z,21.67
2023-03-01T10:37:16.217Z,23.88
2023-03-01T10:39:57.743Z,19.92
2023-03-01T10:42:31.731Z,19.52
2023-03-01T10:44:59.019Z,20.45
2023-03-01T10:47:28.169Z,19.45
2023-03-01T10:49:54.565Z,19.25
2023-03-01T10:52:24.117Z,19.65
2023-03-01T10:55:00.421Z,18.77
2023-03-01T10:57:33.936Z,19.60
2023-03-01T11:00:19.938Z,18.88
2023-03-01T11:02:52.437Z,14.88
2023-03-01T11:05:21.109Z,16.88
2023-03-01T11:08:01.477Z,18.65
2023-03-01T11:10:33.712Z,17.02
2023-03-01T11:13:20.626Z,15.95
2023-03-01T11:16:02.330Z,17.00
2023-03-01T11:18:46.354Z,16.80
2023-03-01T11:21:16.640Z,19.23
2023-03-01T11:23:47.577Z,17.52
2023-03-01T11:26:14.641Z,17.35
2023-03-01T11:31:15.846Z,19.33
2023-03-01T11:33:51.038Z,18.00
2023-03-01T11:36:22.798Z,18.55
2023-03-01T11:38:49.718Z,18.35
2023-03-01T11:41:22.865Z,18.42
2023-03-01T11:44:17.697Z,17.25
2023-03-01T11:47:13.676Z,17.75
2023-03-01T11:50:01.617Z,17.88
2023-03-01T11:52:50.896Z,17.77
2023-03-01T11:55:30.341Z,15.20
2023-03-01T11:58:13.222Z,15.48
2023-03-01T12:01:12.606Z,16.00
2023-03-01T12:04:00.790Z,15.77
2023-03-01T12:06:36.113Z,15.13
2023-03-01T12:09:15.827Z,16.45
2023-03-01T12:11:57.434Z,15.82
2023-03-01T12:14:57.712Z,16.42
2023-03-01T12:17:45.978Z,15.73
2023-03-01T12:20:30.439Z,15.52
2023-03-01T12:23:37.138Z,14.77
2023-03-01T12:26:32.280Z,15.40
2023-03-01T12:29:02.802Z,15.18
2023-03-01T12:31:39.781Z,16.35
2023-03-01T12:34:30.426Z,15.55
2023-03-01T12:36:56.812Z,15.40
2023-03-01T12:39:55.894Z,15.63
2023-03-01T12:42:52.936Z,16.13
2023-03-01T12:45:38.077Z,16.02
2023-03-01T12:48:27.209Z,16.50
2023-03-01T12:50:58.622Z,17.38
2023-03-01T12:53:36.497Z,18.08
2023-03-01T12:56:26.336Z,16.15
2023-03-01T12:59:14.913Z,14.98
2023-03-01T13:01:47.142Z,16.05
2023-03-01T13:04:18.008Z,15.95
2023-03-01T13:07:11.216Z,16.38
2023-03-01T13:09:49.336Z,15.65
2023-03-01T13:12:53.293Z,16.83
2023-03-01T13:15:37.428Z,16.13
2023-03-01T13:18:05.651Z,15.35
2023-03-01T13:20:44.415Z,15.95
2023-03-01T13:23:23.014Z,15.85
2023-03-01T13:26:01.334Z,16.25
2023-03-01T13:28:45.980Z,15.60
2023-03-01T13:31:21.617Z,15.80
2023-03-01T13:33:49.448Z,15.60
2023-03-01T13:36:28.145Z,14.63
2023-03-01T13:38:54.657Z,15.25
2023-03-01T13:41:43.409Z,13.48
2023-03-01T13:44:27.311Z,15.55
2023-03-01T13:47:08.523Z,15.30
2023-03-01T13:49:46.583Z,15.35
2023-03-01T13:52:37.026Z,15.32
2023-03-01T13:55:15.530Z,14.65
2023-03-01T13:57:47.373Z,14.68
2023-03-01T14:00:32.458Z,15.15
2023-03-01T14:03:18.632Z,14.50
2023-03-01T14:06:14.028Z,15.20
2023-03-01T14:08:42.105Z,15.07
2023-03-01T14:14:03.732Z,16.30
2023-03-01T14:16:37.200Z,16.17
2023-03-01T14:19:20.296Z,15.88
2023-03-01T14:22:14.215Z,14.70
2023-03-01T14:27:14.071Z,14.75
2023-03-01T14:29:41.584Z,15.48
2023-03-01T14:32:15.630Z,15.70
2023-03-01T14:34:46.707Z,14.82
2023-03-01T14:37:28.356Z,16.38
2023-03-01T14:39:55.739Z,14.13
2023-03-01T14:42:25.995Z,15.77
2023-03-01T14:44:55.364Z,14.30
2023-03-01T14:47:31.093Z,14.10
2023-03-01T14:50:02.287Z,13.90
2023-03-01T14:52:39.601Z,16.40
2023-03-01T14:55:30.816Z,15.40
2023-03-01T14:57:58.258Z,15.93
2023-03-01T15:00:29.111Z,14.90
2023-03-01T15:02:57.884Z,13.25
2023-03-01T15:05:32.979Z,14.40
2023-03-01T15:08:01.853Z,13.90
2023-03-01T15:10:37.276Z,13.90
2023-03-01T15:13:14.714Z,14.13
2023-03-01T15:18:30.159Z,13.30
2023-03-01T15:21:08.974Z,13.95
2023-03-01T15:23:38.133Z,13.48
2023-03-01T15:26:04.809Z,13.82
2023-03-01T15:28:49.891Z,12.50
2023-03-01T15:31:25.429Z,13.35
2023-03-01T15:33:53.068Z,13.38
2023-03-01T15:36:31.991Z,12.30
2023-03-01T15:39:00.976Z,12.75
2023-03-01T15:41:49.570Z,11.95
2023-03-01T15:44:19.287Z,12.23
2023-03-01T15:46:49.560Z,13.23
2023-03-01T15:49:54.043Z,12.85
2023-03-01T15:52:40.292Z,12.55
2023-03-01T15:55:16.877Z,12.43
2023-03-01T15:57:43.355Z,12.50
2023-03-01T16:00:14.510Z,12.52
2023-03-01T16:02:42.900Z,11.93
2023-03-01T16:05:21.081Z,12.20
2023-03-01T16:07:47.725Z,12.57
2023-03-01T16:10:14.548Z,11.43
2023-03-01T16:12:41.271Z,11.63
2023-03-01T16:15:33.084Z,10.60
2023-03-01T16:17:59.804Z,10.88
2023-03-01T16:20:28.790Z,11.57
2023-03-01T16:22:55.958Z,11.63
2023-03-01T16:25:22.944Z,11.23
2023-03-01T16:30:22.048Z,10.52
2023-03-01T16:32:49.918Z,10.27
2023-03-01T16:35:19.070Z,10.10
2023-03-01T16:37:46.155Z,9.77
2023-03-01T16:43:00.998Z,9.90
2023-03-01T16:45:36.664Z,10.43
2023-03-01T16:48:04.312Z,11.93
2023-03-01T16:50:30.762Z,10.93
2023-03-01T16:52:57.224Z,14.73
2023-03-01T16:55:24.237Z,16.85
2023-03-01T17:00:18.849Z,15.10
2023-03-01T17:02:45.561Z,12.77
2023-03-01T17:05:12.847Z,11.77
2023-03-01T17:07:40.341Z,11.65
2023-03-01T17:10:10.867Z,10.15
2023-03-01T17:12:37.972Z,9.57
2023-03-01T17:15:06.371Z,9.73
2023-03-01T17:17:33.442Z,10.25
2023-03-01T17:22:26.280Z,9.38
2023-03-01T17:25:03.208Z,9.85
2023-03-01T17:27:29.690Z,10.23
2023-03-01T17:29:56.152Z,9.55
2023-03-01T17:32:22.722Z,9.00
2023-03-01T17:34:49.220Z,10.10
2023-03-01T17:37:15.909Z,9.27
2023-03-01T17:39:42.305Z,10.02
2023-03-01T17:42:08.735Z,10.60
2023-03-01T17:44:35.238Z,10.27
2023-03-01T17:47:03.900Z,11.00
2023-03-01T17:49:30.555Z,10.95
2023-03-01T17:51:57.091Z,14.77
2023-03-01T17:54:23.853Z,17.02
2023-03-01T17:56:51.034Z,18.27
2023-03-01T17:59:20.651Z,21.65
2023-03-01T18:01:47.233Z,23.48
2023-03-01T18:04:14.366Z,23.13
2023-03-01T18:06:41.022Z,24.20
2023-03-01T18:09:08.288Z,23.60
2023-03-01T18:11:36.368Z,27.42
2023-03-01T18:14:04.222Z,27.43
2023-03-01T18:16:32.091Z,26.13
2023-03-01T18:18:58.975Z,29.63
2023-03-01T18:21:25.516Z,20.92
2023-03-01T18:23:53.068Z,24.50
2023-03-01T18:26:22.377Z,23.67
2023-03-01T18:28:51.616Z,21.38
2023-03-01T18:31:21.707Z,19.38
2023-03-01T18:33:49.559Z,16.67
2023-03-01T18:36:24.861Z,15.60
2023-03-01T18:38:53.696Z,14.55
2023-03-01T18:41:24.703Z,15.07
2023-03-01T18:43:51.174Z,14.40
2023-03-01T18:46:18.000Z,13.68
2023-03-01T18:48:48.343Z,14.82
2023-03-01T18:51:18.882Z,13.53
2023-03-01T18:53:45.898Z,14.93
2023-03-01T18:58:39.860Z,14.00
2023-03-01T19:01:13.616Z,14.98
2023-03-01T19:03:40.134Z,13.70
2023-03-01T19:06:06.618Z,13.13
2023-03-01T19:08:33.129Z,12.23
2023-03-01T19:11:03.140Z,15.13
2023-03-01T19:13:30.505Z,13.73
2023-03-01T19:16:09.393Z,14.27
2023-03-01T19:18:41.716Z,14.38
2023-03-01T19:21:12.037Z,16.60
2023-03-01T19:23:39.080Z,15.40
2023-03-01T19:28:35.482Z,18.13
2023-03-01T19:31:14.972Z,20.63
2023-03-01T19:33:42.208Z,21.67
2023-03-01T19:36:11.115Z,21.23
2023-03-01T19:38:39.374Z,20.80
2023-03-01T19:41:09.226Z,20.23
2023-03-01T19:43:36.162Z,19.80
2023-03-01T19:48:38.154Z,18.98
2023-03-01T19:51:04.804Z,19.47
2023-03-01T19:53:33.762Z,19.50
2023-03-01T19:56:02.384Z,19.20
2023-03-01T19:58:30.758Z,18.07
2023-03-01T20:01:00.818Z,18.67
2023-03-01T20:03:28.536Z,19.03
2023-03-01T20:05:56.687Z,20.87
2023-03-01T20:08:24.098Z,22.13
2023-03-01T20:10:50.972Z,24.43
2023-03-01T20:13:21.036Z,25.58
2023-03-01T20:15:48.042Z,24.23
2023-03-01T20:18:15.307Z,23.85
2023-03-01T20:20:41.834Z,22.50
2023-03-01T20:23:08.462Z,24.33
2023-03-01T20:25:34.970Z,23.05
2023-03-01T20:28:01.565Z,24.55
2023-03-01T20:30:27.990Z,23.70
2023-03-01T20:32:54.462Z,23.13
2023-03-01T20:35:22.088Z,24.60
2023-03-01T20:37:52.270Z,24.97
2023-03-01T20:40:21.159Z,23.77
2023-03-01T20:42:47.939Z,23.70
2023-03-01T20:45:14.690Z,23.52
2023-03-01T20:47:41.238Z,25.67
2023-03-01T20:50:07.935Z,25.23
2023-03-01T20:52:42.366Z,26.95
2023-03-01T20:55:12.842Z,28.50
2023-03-01T20:57:39.402Z,29.52
2023-03-01T21:00:07.012Z,31.00
2023-03-01T21:02:33.421Z,30.73
2023-03-01T21:04:59.896Z,29.50
2023-03-01T21:07:26.360Z,29.27
2023-03-01T21:09:52.964Z,30.50
2023-03-01T21:12:19.440Z,30.17
2023-03-01T21:14:47.300Z,27.42
2023-03-01T21:17:16.162Z,28.73
2023-03-01T21:19:44.410Z,28.80
2023-03-01T21:22:15.227Z,26.90
2023-03-01T21:24:43.264Z,29.77
2023-03-01T21:27:10.567Z,28.97
2023-03-01T21:29:38.397Z,26.87
2023-03-01T21:32:05.908Z,26.07
2023-03-01T21:34:33.082Z,28.00
2023-03-01T21:41:57.264Z,25.43
2023-03-01T21:44:25.860Z,25.93
2023-03-01T21:46:53.376Z,22.60
2023-03-01T21:49:21.021Z,20.30
2023-03-01T21:51:47.966Z,21.40
2023-03-01T21:56:43.526Z,17.67
2023-03-01T21:59:16.432Z,23.30
2023-03-01T22:01:43.151Z,22.00
2023-03-01T22:04:09.998Z,20.92
2023-03-01T22:06:40.684Z,21.83
2023-03-01T22:09:19.024Z,24.73
2023-03-01T22:11:48.803Z,33.37
2023-03-01T22:14:17.121Z,31.27
2023-03-01T22:16:45.656Z,29.67
2023-03-01T22:19:14.589Z,28.03
2023-03-01T22:21:44.094Z,25.07
2023-03-01T22:24:28.782Z,23.77
2023-03-01T22:26:55.573Z,23.00
2023-03-01T22:29:25.430Z,21.27
2023-03-01T22:31:53.287Z,22.80
2023-03-01T22:34:20.349Z,21.30
2023-03-01T22:39:15.644Z,22.63
2023-03-01T22:41:45.877Z,21.33
2023-03-01T22:44:14.775Z,22.67
2023-03-01T22:46:41.986Z,21.77
2023-03-01T22:49:09.941Z,21.80
2023-03-01T22:51:38.255Z,21.07
2023-03-01T22:54:05.548Z,20.17
2023-03-01T22:56:36.587Z,19.30
2023-03-01T22:59:08.527Z,18.10
2023-03-01T23:01:36.407Z,19.97
2023-03-01T23:04:03.079Z,18.60
2023-03-01T23:06:32.538Z,17.73
2023-03-01T23:09:01.828Z,17.40
2023-03-01T23:11:29.390Z,20.03
2023-03-01T23:13:56.273Z,18.03
2023-03-01T23:16:26.271Z,19.17
2023-03-01T23:18:54.550Z,19.37
2023-03-01T23:21:21.357Z,19.63
2023-03-01T23:23:48.077Z,18.35
2023-03-01T23:26:15.647Z,18.90
2023-03-01T23:28:42.801Z,18.77
2023-03-01T23:31:14.798Z,19.33
2023-03-01T23:33:44.710Z,19.40
2023-03-01T23:36:18.798Z,19.77
2023-03-01T23:38:50.169Z,19.50
2023-03-01T23:41:20.215Z,20.07
2023-03-01T23:43:48.833Z,18.13
2023-03-01T23:46:16.837Z,17.83
2023-03-01T23:48:44.275Z,17.20
2023-03-01T23:51:11.734Z,17.50
2023-03-01T23:53:43.503Z,17.77
2023-03-01T23:56:13.415Z,18.10
2023-03-01T23:58:39.839Z,17.87
